Time;durP1;ratioP1;P1;durP2;ratioP2;P2;SDS_P1;SDS_P2;PMS_P1;PMS_P2;Temp;Humidity;BMP_temperature;BMP_pressure;BME280_temperature;BME280_humidity;BME280_pressure;Samples;Min_cycle;Max_cycle;Signal;HPM_P1;HPM_P2
2022/03/12 00:00:43;;;;;;;4.72;4.30;;;;;;;9.02;28.37;101062.34;6056427;23;20014;-64
2022/03/12 00:03:10;;;;;;;3.50;3.40;;;;;;;8.92;28.16;101050.50;6059117;23;20022;-65
2022/03/12 00:05:50;;;;;;;5.05;4.85;;;;;;;8.98;28.07;101053.75;6057507;23;20021;-64
2022/03/12 00:08:17;;;;;;;3.83;3.63;;;;;;;8.88;27.35;101043.69;6035255;23;20021;-64
2022/03/12 00:10:44;;;;;;;4.60;4.38;;;;;;;8.91;27.41;101056.66;6063466;23;20090;-63
2022/03/12 00:13:10;;;;;;;3.90;3.70;;;;;;;8.84;28.37;101044.72;6053734;23;20037;-63
2022/03/12 00:15:37;;;;;;;5.85;5.55;;;;;;;8.84;28.16;101053.44;6081899;23;20159;-64
2022/03/12 00:18:06;;;;;;;3.70;3.60;;;;;;;8.89;28.56;101056.72;6065034;23;20095;-63
2022/03/12 00:20:33;;;;;;;5.53;5.28;;;;;;;8.86;28.06;101042.91;6083404;23;20629;-64
2022/03/12 00:22:59;;;;;;;5.00;4.47;;;;;;;8.50;27.83;100996.31;6043729;23;20037;-64
2022/03/12 00:25:26;;;;;;;4.13;3.92;;;;;;;8.86;28.07;101043.78;6056809;23;20077;-63
2022/03/12 00:27:53;;;;;;;3.55;3.45;;;;;;;8.72;28.03;101026.00;6057869;23;20034;-64
2022/03/12 00:30:23;;;;;;;3.90;3.70;;;;;;;7.77;28.46;100883.16;6055091;23;20025;-64
2022/03/12 00:32:51;;;;;;;3.70;3.60;;;;;;;8.51;28.42;101008.50;6072023;23;20087;-63
2022/03/12 00:35:20;;;;;;;3.70;3.60;;;;;;;8.73;29.02;101063.47;6060282;23;20472;-65
2022/03/12 00:37:47;;;;;;;3.92;3.75;;;;;;;8.74;29.34;101066.03;6055520;23;20010;-65
2022/03/12 00:40:15;;;;;;;3.63;3.53;;;;;;;8.74;28.27;101063.41;6053836;23;20030;-66
2022/03/12 00:42:42;;;;;;;5.15;4.95;;;;;;;8.53;28.57;101031.06;6056574;23;20614;-66
2022/03/12 00:45:10;;;;;;;3.80;3.67;;;;;;;8.67;28.72;101061.94;6056840;23;20022;-66
2022/03/12 00:47:36;;;;;;;6.07;5.70;;;;;;;8.71;29.35;101060.91;6048746;23;20074;-66
2022/03/12 00:50:04;;;;;;;3.53;3.42;;;;;;;8.47;28.29;101020.84;6026411;23;20033;-65
2022/03/12 00:52:31;;;;;;;5.10;4.90;;;;;;;8.73;29.50;101064.31;6060608;23;20105;-66
2022/03/12 00:54:57;;;;;;;4.57;4.38;;;;;;;8.76;28.18;101072.06;6058552;23;20030;-65
2022/03/12 00:57:24;;;;;;;4.30;4.05;;;;;;;8.79;28.95;101066.69;6058168;23;20023;-67
2022/03/12 00:59:51;;;;;;;3.80;3.60;;;;;;;8.69;28.94;101077.59;6082563;23;20026;-65
2022/03/12 01:02:18;;;;;;;3.72;3.63;;;;;;;8.67;29.10;101055.84;6055326;23;20048;-66
2022/03/12 01:04:45;;;;;;;4.30;4.10;;;;;;;8.68;29.29;101076.75;6061300;23;20019;-66
2022/03/12 01:07:12;;;;;;;3.70;3.60;;;;;;;8.63;30.05;101070.81;6058294;23;20085;-66
2022/03/12 01:09:40;;;;;;;5.40;5.20;;;;;;;8.64;29.39;101072.53;6062923;23;20490;-66
2022/03/12 01:12:11;;;;;;;3.72;3.53;;;;;;;8.65;29.69;101073.38;6059998;23;20699;-67
2022/03/12 01:14:38;;;;;;;5.13;4.93;;;;;;;8.35;29.79;101040.44;6054692;23;20081;-66
2022/03/12 01:17:06;;;;;;;3.50;3.40;;;;;;;8.53;30.21;101077.31;6060635;23;20406;-66
2022/03/12 01:19:38;;;;;;;4.90;4.70;;;;;;;8.53;29.38;101077.31;6054119;23;20030;-66
2022/03/12 01:22:06;;;;;;;3.50;3.40;;;;;;;8.48;29.85;101080.09;6053387;23;20022;-66
2022/03/12 01:24:34;;;;;;;5.13;4.93;;;;;;;8.33;30.13;101057.94;6062976;23;20051;-67
2022/03/12 01:27:00;;;;;;;4.57;4.38;;;;;;;8.45;29.92;101082.81;6022749;23;20029;-66
2022/03/12 01:29:27;;;;;;;5.30;5.07;;;;;;;8.40;30.58;101082.13;6054917;23;20514;-63
2022/03/12 01:31:54;;;;;;;4.45;4.25;;;;;;;8.38;30.73;101074.31;6034541;23;20049;-66
2022/03/12 01:34:21;;;;;;;3.72;3.63;;;;;;;8.35;29.95;101073.59;6054270;23;20459;-68
2022/03/12 01:36:48;;;;;;;4.07;3.88;;;;;;;8.37;31.06;101083.06;6053746;23;20066;-66
2022/03/12 01:39:14;;;;;;;3.70;3.60;;;;;;;8.36;30.21;101081.38;6083464;23;20069;-66
2022/03/12 01:41:43;;;;;;;5.47;5.28;;;;;;;8.31;30.80;101078.06;6078218;23;20034;-66
2022/03/12 01:44:12;;;;;;;3.38;3.28;;;;;;;8.30;30.71;101076.38;6079599;23;20379;-66
2022/03/12 01:46:44;;;;;;;4.78;4.57;;;;;;;8.28;31.50;101066.84;6081099;23;20026;-66
2022/03/12 01:49:18;;;;;;;4.15;3.95;;;;;;;8.31;31.53;101080.69;6086949;23;20033;-66
2022/03/12 01:51:47;;;;;;;3.50;3.40;;;;;;;8.26;30.38;101077.41;6081680;23;20115;-66
2022/03/12 01:54:23;;;;;;;3.40;3.30;;;;;;;7.13;31.38;100902.84;6080335;23;20045;-65
2022/03/12 01:56:51;;;;;;;3.58;3.47;;;;;;;8.28;31.33;101087.78;6087701;23;20264;-65
2022/03/12 01:59:19;;;;;;;4.03;3.72;;;;;;;8.09;31.34;101048.38;6081324;23;20024;-66
2022/03/12 02:01:52;;;;;;;3.97;3.78;;;;;;;8.10;32.23;101060.56;6079492;23;20018;-66
2022/03/12 02:04:20;;;;;;;3.92;3.72;;;;;;;8.21;32.52;101092.38;6088465;23;20079;-69
2022/03/12 02:06:47;;;;;;;3.65;3.53;;;;;;;7.97;31.44;101036.63;6085328;23;20026;-66
2022/03/12 02:09:18;;;;;;;3.72;3.55;;;;;;;8.11;31.31;101060.50;6089725;23;20021;-66
2022/03/12 02:11:51;;;;;;;3.50;3.40;;;;;;;8.19;32.14;101097.66;6057364;23;20016;-66
2022/03/12 02:14:21;;;;;;;3.50;3.40;;;;;;;6.71;31.66;100853.00;6103713;23;20032;-66
2022/03/12 02:16:50;;;;;;;4.05;3.75;;;;;;;8.15;32.30;101092.59;6088699;23;20038;-66
2022/03/12 02:19:18;;;;;;;3.58;3.47;;;;;;;8.25;32.32;101100.97;6083653;23;20020;-66
2022/03/12 02:21:52;;;;;;;8.75;4.00;;;;;;;8.24;32.17;101100.13;6076369;23;20323;-66
2022/03/12 02:24:21;;;;;;;3.60;3.50;;;;;;;8.26;31.52;101102.66;6085948;23;20461;-66
2022/03/12 02:26:48;;;;;;;3.63;3.50;;;;;;;8.14;32.23;101085.69;6083163;23;20029;-65
2022/03/12 02:29:20;;;;;;;4.10;3.90;;;;;;;8.20;33.00;101111.59;6109373;23;20466;-66
2022/03/12 02:31:50;;;;;;;3.92;3.72;;;;;;;8.15;33.06;101106.53;6080732;23;20494;-64
2022/03/12 02:34:23;;;;;;;3.85;3.65;;;;;;;8.17;32.72;101107.31;6082276;23;20018;-62
2022/03/12 02:36:51;;;;;;;3.80;3.60;;;;;;;8.17;31.71;101109.94;6080586;23;20070;-64
2022/03/12 02:39:20;;;;;;;3.53;3.42;;;;;;;8.18;32.89;101106.44;6101298;23;20006;-64
2022/03/12 02:41:48;;;;;;;4.80;4.50;;;;;;;7.16;32.41;100947.13;6080188;23;20435;-64
2022/03/12 02:44:22;;;;;;;3.60;3.50;;;;;;;8.03;32.28;101087.81;6078888;23;20103;-64
2022/03/12 02:47:14;;;;;;;3.60;3.50;;;;;;;8.10;32.98;101099.78;6079335;23;20085;-64
2022/03/12 02:49:56;;;;;;;4.55;4.35;;;;;;;8.08;34.03;101112.91;6066526;23;20033;-64
2022/03/12 02:52:27;;;;;;;4.10;3.90;;;;;;;8.10;33.90;101107.63;6102013;23;20044;-63
2022/03/12 02:54:55;;;;;;;3.42;3.33;;;;;;;7.93;33.60;101089.91;6083229;23;20016;-64
2022/03/12 02:57:23;;;;;;;4.53;4.32;;;;;;;8.03;35.40;101108.72;6074680;23;20533;-63
2022/03/12 02:59:52;;;;;;;3.58;3.47;;;;;;;7.93;37.66;101116.03;6088882;23;20442;-64
2022/03/12 03:02:25;;;;;;;3.90;3.70;;;;;;;7.82;38.24;101084.19;6091148;23;20040;-64
2022/03/12 03:04:52;;;;;;;3.40;3.30;;;;;;;7.71;39.51;101108.06;6078719;23;20670;-63
2022/03/12 03:07:18;;;;;;;3.30;3.20;;;;;;;7.60;41.10;101100.59;6098716;23;20031;-63
2022/03/12 03:09:46;;;;;;;3.50;3.40;;;;;;;7.52;40.60;101108.69;6063521;23;20034;-63
2022/03/12 03:12:13;;;;;;;3.92;3.72;;;;;;;7.49;40.22;101110.53;6080972;23;20026;-64
2022/03/12 03:14:47;;;;;;;5.13;4.93;;;;;;;7.39;41.41;101092.53;6111616;23;20017;-63
2022/03/12 03:17:13;;;;;;;3.88;3.67;;;;;;;7.39;42.70;101108.22;6058709;23;20041;-63
2022/03/12 03:19:41;;;;;;;4.85;4.65;;;;;;;7.07;40.99;101062.25;6108283;23;20009;-63
2022/03/12 03:22:08;;;;;;;3.42;3.33;;;;;;;7.28;41.01;101115.56;6086845;23;20101;-64
2022/03/12 03:24:35;;;;;;;5.47;5.07;;;;;;;6.42;40.08;100966.91;6087395;23;20013;-64
2022/03/12 03:27:02;;;;;;;4.32;4.07;;;;;;;7.09;40.36;101089.16;6083643;23;20114;-65
2022/03/12 03:29:31;;;;;;;5.15;4.95;;;;;;;7.26;40.23;101121.75;6112983;23;20028;-64
2022/03/12 03:32:01;;;;;;;3.80;3.60;;;;;;;6.93;39.42;101061.84;6089935;23;20029;-64
2022/03/12 03:34:30;;;;;;;5.43;5.13;;;;;;;7.29;39.29;101124.22;6077699;23;20018;-64
2022/03/12 03:36:58;;;;;;;3.97;3.78;;;;;;;7.29;39.21;101121.63;6090722;23;20408;-63
2022/03/12 03:39:25;;;;;;;4.00;3.83;;;;;;;7.25;37.45;101099.13;6042945;23;20024;-63
2022/03/12 03:41:51;;;;;;;3.40;3.30;;;;;;;7.41;37.04;101116.00;6060579;23;20093;-63
2022/03/12 03:44:26;;;;;;;4.85;4.55;;;;;;;7.31;37.41;101101.53;6079478;23;20050;-64
2022/03/12 03:46:53;;;;;;;3.40;3.30;;;;;;;7.39;37.83;101112.59;6059151;23;21093;-65
2022/03/12 03:49:19;;;;;;;3.40;3.30;;;;;;;7.42;37.73;101116.84;6063657;23;20033;-65
2022/03/12 03:51:47;;;;;;;4.13;3.92;;;;;;;7.44;36.75;101123.75;6042104;23;20041;-65
2022/03/12 03:54:15;;;;;;;3.38;3.28;;;;;;;7.43;36.98;101122.03;6064059;23;20026;-63
2022/03/12 03:56:42;;;;;;;4.28;4.07;;;;;;;7.49;36.56;101124.44;6051491;23;20030;-63
2022/03/12 03:59:09;;;;;;;4.22;4.03;;;;;;;7.48;35.89;101122.75;6080800;23;20591;-63
2022/03/12 04:01:41;;;;;;;4.68;4.47;;;;;;;7.51;36.69;101130.47;6041573;23;20595;-63
2022/03/12 04:04:12;;;;;;;3.97;3.78;;;;;;;7.49;37.08;101131.44;6057272;23;20029;-63
2022/03/12 04:06:39;;;;;;;4.97;4.78;;;;;;;7.50;36.14;101130.53;6029301;23;20015;-64
2022/03/12 04:09:06;;;;;;;3.78;3.55;;;;;;;7.34;36.23;101122.34;6057835;23;20081;-63
2022/03/12 04:11:34;;;;;;;5.38;5.18;;;;;;;7.54;36.21;101140.84;6033664;23;20598;-63
2022/03/12 04:14:01;;;;;;;3.97;3.78;;;;;;;7.54;36.71;101150.44;6065594;23;20038;-64
2022/03/12 04:16:31;;;;;;;5.43;5.13;;;;;;;7.53;36.38;101148.72;6055743;23;20085;-63
2022/03/12 04:18:57;;;;;;;4.07;3.78;;;;;;;7.55;36.40;101145.13;6068724;23;20729;-64
2022/03/12 04:21:24;;;;;;;3.72;3.60;;;;;;;7.56;37.06;101144.25;6019182;23;20116;-64
2022/03/12 04:23:51;;;;;;;3.83;3.65;;;;;;;7.56;36.99;101152.09;6075290;23;20010;-63
2022/03/12 04:26:17;;;;;;;3.50;3.40;;;;;;;7.54;36.13;101155.66;6058524;23;20510;-63
2022/03/12 04:28:45;;;;;;;3.47;3.38;;;;;;;7.46;36.37;101149.81;6073316;23;20567;-63
2022/03/12 04:31:13;;;;;;;4.00;3.80;;;;;;;7.47;36.50;101156.75;6058865;23;20022;-64
2022/03/12 04:33:40;;;;;;;5.25;5.05;;;;;;;7.36;37.29;101141.44;6052369;23;20042;-63
2022/03/12 04:36:10;;;;;;;3.75;3.53;;;;;;;7.27;36.91;101128.66;6059017;23;20027;-64
2022/03/12 04:38:37;;;;;;;4.97;4.78;;;;;;;7.46;37.67;101165.50;6074127;23;20038;-63
2022/03/12 04:41:04;;;;;;;3.38;3.28;;;;;;;7.33;36.64;101144.97;6084698;23;20101;-63
2022/03/12 04:43:31;;;;;;;5.32;5.05;;;;;;;7.45;37.51;101163.78;6082348;23;20536;-63
2022/03/12 04:45:59;;;;;;;3.67;3.58;;;;;;;7.42;36.48;101166.47;6092452;23;21371;-63
2022/03/12 04:48:28;;;;;;;4.32;4.15;;;;;;;7.40;37.85;101174.38;6082642;23;20022;-64
2022/03/12 04:50:55;;;;;;;3.70;3.40;;;;;;;7.20;36.78;101148.88;6088594;23;20635;-62
2022/03/12 04:53:22;;;;;;;3.53;3.42;;;;;;;7.39;37.11;101180.47;6080141;23;20380;-63
2022/03/12 04:55:49;;;;;;;4.13;3.92;;;;;;;7.33;36.74;101178.91;6082668;23;21607;-63
2022/03/12 04:58:16;;;;;;;3.38;3.28;;;;;;;6.92;37.42;101113.19;6062484;23;20586;-65
2022/03/12 05:00:44;;;;;;;4.03;3.75;;;;;;;7.04;37.73;101158.94;6086587;23;20140;-66
2022/03/12 05:03:13;;;;;;;3.78;3.65;;;;;;;7.16;37.33;101187.28;6086940;23;20545;-65
2022/03/12 05:05:43;;;;;;;5.35;5.15;;;;;;;7.12;37.74;101192.63;6084314;23;20029;-63
2022/03/12 05:08:15;;;;;;;3.50;3.40;;;;;;;6.70;38.40;101133.84;6080624;23;20613;-63
2022/03/12 05:10:49;;;;;;;3.80;3.60;;;;;;;6.95;38.43;101191.34;6084590;23;20017;-64
2022/03/12 05:13:23;;;;;;;4.07;3.78;;;;;;;6.52;38.99;101136.97;6083581;23;20093;-65
2022/03/12 05:15:52;;;;;;;3.60;3.45;;;;;;;6.77;39.04;101190.13;6080120;23;20157;-63
2022/03/12 05:18:20;;;;;;;3.65;3.50;;;;;;;6.88;38.21;101191.59;6089084;23;20624;-63
2022/03/12 05:20:48;;;;;;;3.50;3.40;;;;;;;6.55;38.91;101150.75;6082946;23;20017;-63
2022/03/12 05:23:16;;;;;;;4.15;3.95;;;;;;;6.81;39.45;101190.91;6088441;23;20047;-63
2022/03/12 05:25:46;;;;;;;4.25;4.05;;;;;;;6.82;38.85;101199.59;6081704;23;20022;-64
2022/03/12 05:28:25;;;;;;;6.07;3.80;;;;;;;6.74;39.25;101171.13;6083567;23;20028;-64
2022/03/12 05:30:59;;;;;;;3.80;3.60;;;;;;;6.92;38.50;101196.69;6082568;23;20014;-64
2022/03/12 05:33:26;;;;;;;3.72;3.58;;;;;;;6.93;38.85;101192.31;6083068;23;20459;-63
2022/03/12 05:35:54;;;;;;;3.50;3.40;;;;;;;6.86;38.90;101190.78;6083191;23;20085;-63
2022/03/12 05:38:23;;;;;;;3.58;3.47;;;;;;;6.82;39.62;101202.22;6084071;23;20076;-64
2022/03/12 05:40:50;;;;;;;3.30;3.20;;;;;;;6.76;39.78;101196.25;6080055;23;20077;-64
2022/03/12 05:43:17;;;;;;;3.97;3.78;;;;;;;6.68;40.27;101200.00;6084929;23;20093;-63
2022/03/12 05:45:45;;;;;;;3.65;3.45;;;;;;;6.65;39.46;101200.91;6083803;23;20023;-63
2022/03/12 05:48:13;;;;;;;3.75;3.55;;;;;;;5.44;40.44;101003.53;6079032;23;20049;-64
2022/03/12 05:50:40;;;;;;;5.65;5.28;;;;;;;6.57;40.63;101201.16;6084420;23;20059;-63
2022/03/12 05:53:09;;;;;;;4.05;3.85;;;;;;;6.29;40.58;101156.69;6079353;23;20100;-66
2022/03/12 05:55:40;;;;;;;6.10;5.80;;;;;;;6.51;40.96;101190.84;6080867;23;20030;-66
2022/03/12 05:58:07;;;;;;;3.40;3.30;;;;;;;6.48;41.81;101196.16;6088340;23;20471;-66
2022/03/12 06:00:34;;;;;;;4.93;4.72;;;;;;;6.48;41.20;101197.94;6081081;23;20807;-65
2022/03/12 06:03:01;;;;;;;3.28;3.17;;;;;;;6.34;41.26;101177.44;6086940;23;20021;-65
2022/03/12 06:05:29;;;;;;;5.35;5.07;;;;;;;6.49;42.27;101197.03;6084993;23;20081;-64
2022/03/12 06:07:55;;;;;;;3.55;3.40;;;;;;;6.49;41.93;101197.88;6060159;23;20069;-66
2022/03/12 06:10:24;;;;;;;4.20;4.00;;;;;;;6.22;42.32;101151.72;6080956;23;20545;-66
2022/03/12 06:12:53;;;;;;;3.45;3.25;;;;;;;6.62;41.86;101203.63;6083097;23;20022;-65
2022/03/12 06:15:25;;;;;;;3.50;3.40;;;;;;;5.67;42.34;101044.56;6081327;23;20435;-66
2022/03/12 06:17:52;;;;;;;4.45;4.15;;;;;;;6.59;42.01;101198.47;6089649;23;20081;-65
2022/03/12 06:20:23;;;;;;;3.50;3.40;;;;;;;6.61;43.19;101221.91;6078867;23;20084;-65
2022/03/12 06:22:52;;;;;;;4.22;4.03;;;;;;;6.62;43.18;101210.59;6080735;23;20017;-65
2022/03/12 06:25:19;;;;;;;4.32;4.03;;;;;;;6.57;43.51;101189.84;6063401;23;20033;-66
2022/03/12 06:27:52;;;;;;;3.70;3.60;;;;;;;6.69;43.38;101210.34;6078021;23;20741;-66
2022/03/12 06:30:19;;;;;;;3.33;3.22;;;;;;;6.75;42.75;101202.34;6087811;23;20028;-66
2022/03/12 06:32:46;;;;;;;3.72;3.58;;;;;;;6.79;43.18;101204.00;6075816;23;20903;-67
2022/03/12 06:35:13;;;;;;;3.40;3.30;;;;;;;6.85;44.10;101209.94;6082705;23;20018;-65
2022/03/12 06:37:40;;;;;;;5.18;4.97;;;;;;;6.78;42.97;101191.00;6075546;23;20097;-64
2022/03/12 06:40:10;;;;;;;4.32;4.13;;;;;;;7.01;43.95;101211.19;6080528;23;20033;-65
2022/03/12 06:42:39;;;;;;;5.63;5.32;;;;;;;7.11;43.08;101204.81;6064761;23;20030;-64
2022/03/12 06:45:10;;;;;;;3.28;3.17;;;;;;;6.93;43.69;101169.66;6086824;23;20085;-65
2022/03/12 06:47:38;;;;;;;5.05;4.85;;;;;;;7.19;44.90;101220.25;6074014;23;20022;-64
2022/03/12 06:50:11;;;;;;;3.40;3.30;;;;;;;7.23;44.12;101198.38;6085833;23;20394;-64
2022/03/12 06:52:41;;;;;;;4.85;4.65;;;;;;;7.31;44.96;101208.59;6074950;23;20387;-64
2022/03/12 06:55:09;;;;;;;3.40;3.30;;;;;;;7.45;44.31;101216.84;6080621;23;20022;-65
2022/03/12 06:57:37;;;;;;;4.80;4.60;;;;;;;7.38;45.13;101203.13;6083106;23;20598;-65
2022/03/12 07:00:13;;;;;;;3.42;3.33;;;;;;;7.39;45.78;101206.59;6085447;23;20041;-66
2022/03/12 07:02:40;;;;;;;5.25;5.05;;;;;;;7.49;45.88;101215.84;6063866;23;20026;-64
2022/03/12 07:05:07;;;;;;;3.40;3.30;;;;;;;7.50;45.51;101217.56;6081028;23;20021;-63
2022/03/12 07:07:34;;;;;;;5.00;4.75;;;;;;;7.50;46.43;101203.66;6079400;23;20026;-63
2022/03/12 07:10:00;;;;;;;3.80;3.60;;;;;;;7.62;45.27;101211.13;6083151;23;20468;-62
2022/03/12 07:12:26;;;;;;;3.97;3.80;;;;;;;7.48;45.43;101163.69;6068261;23;20101;-62
2022/03/12 07:14:53;;;;;;;3.40;3.30;;;;;;;7.89;46.37;101206.75;6078378;23;20028;-62
2022/03/12 07:17:19;;;;;;;4.00;3.80;;;;;;;7.99;45.90;101202.91;6083439;23;20030;-62
2022/03/12 07:19:46;;;;;;;3.83;3.63;;;;;;;8.21;45.59;101214.41;6074722;23;20025;-62
2022/03/12 07:22:13;;;;;;;3.95;3.75;;;;;;;8.33;45.52;101212.22;6079989;23;20026;-62
2022/03/12 07:24:39;;;;;;;5.15;4.95;;;;;;;8.51;45.31;101216.00;6074998;23;20032;-62
2022/03/12 07:27:06;;;;;;;4.15;3.95;;;;;;;8.64;46.50;101218.16;6075678;23;20729;-64
2022/03/12 07:29:33;;;;;;;4.22;4.03;;;;;;;8.39;46.51;101161.47;6080181;23;20110;-61
2022/03/12 07:32:00;;;;;;;3.47;3.38;;;;;;;8.82;46.13;101209.69;6076598;23;20037;-64
2022/03/12 07:34:27;;;;;;;4.82;4.63;;;;;;;8.52;47.06;101160.16;6078725;23;20024;-66
2022/03/12 07:36:54;;;;;;;4.22;4.03;;;;;;;8.84;47.16;101196.50;6077352;23;20042;-67
2022/03/12 07:39:20;;;;;;;3.75;3.63;;;;;;;9.16;47.67;101232.84;6081476;23;20021;-63
2022/03/12 07:41:47;;;;;;;4.72;4.43;;;;;;;9.09;48.31;101205.16;6079466;23;20021;-63
2022/03/12 07:44:13;;;;;;;3.80;3.70;;;;;;;9.39;48.32;101225.84;6084967;23;20594;-64
2022/03/12 07:46:40;;;;;;;5.35;5.05;;;;;;;9.59;47.46;101246.88;6079792;23;20010;-63
2022/03/12 07:49:06;;;;;;;4.75;4.55;;;;;;;9.64;47.49;101254.59;6079472;23;20022;-69
2022/03/12 07:51:33;;;;;;;5.95;5.65;;;;;;;9.74;47.40;101268.16;6084049;23;20022;-62
2022/03/12 07:54:00;;;;;;;3.72;3.63;;;;;;;9.58;47.08;101229.47;6088238;23;20024;-62
2022/03/12 07:56:30;;;;;;;5.47;5.18;;;;;;;10.04;46.56;101276.56;6084113;23;20041;-61
2022/03/12 07:58:56;;;;;;;4.10;3.90;;;;;;;10.08;46.72;101278.16;6080693;23;20006;-62
2022/03/12 08:01:23;;;;;;;4.60;4.40;;;;;;;10.02;46.80;101267.91;6075755;23;20104;-61
2022/03/12 08:03:50;;;;;;;4.50;4.20;;;;;;;9.90;46.39;101231.69;6067742;23;20081;-64
2022/03/12 08:06:16;;;;;;;4.78;4.57;;;;;;;10.10;46.59;101278.09;6081471;23;20025;-63
2022/03/12 08:08:43;;;;;;;5.00;4.80;;;;;;;10.10;46.12;101275.47;6052829;23;20120;-63
2022/03/12 08:11:28;;;;;;;4.60;4.40;;;;;;;9.24;46.36;101119.06;6082739;23;20613;-64
2022/03/12 08:14:02;;;;;;;4.45;4.25;;;;;;;10.22;46.64;101295.94;6067578;23;20002;-63
2022/03/12 08:16:31;;;;;;;5.20;5.00;;;;;;;10.14;46.69;101269.19;6084298;23;20018;-65
2022/03/12 08:19:00;;;;;;;4.53;4.20;;;;;;;10.45;46.05;101299.44;6079354;23;20021;-62
2022/03/12 08:21:26;;;;;;;4.30;4.10;;;;;;;10.54;46.32;101304.28;6085194;23;20017;-64
2022/03/12 08:23:56;;;;;;;4.10;3.90;;;;;;;10.64;45.92;101310.00;6066659;23;20478;-64
2022/03/12 08:26:23;;;;;;;4.53;4.32;;;;;;;10.43;45.73;101267.16;6074561;23;20038;-62
2022/03/12 08:28:50;;;;;;;4.30;4.10;;;;;;;10.74;46.17;101306.06;6075301;23;20045;-64
2022/03/12 08:31:18;;;;;;;4.38;4.18;;;;;;;10.84;46.24;101304.72;6079426;23;20038;-65
2022/03/12 08:33:45;;;;;;;4.50;4.30;;;;;;;10.96;46.30;101308.59;6082017;23;20018;-64
2022/03/12 08:36:13;;;;;;;4.35;4.15;;;;;;;11.14;45.73;101310.41;6082703;23;20030;-64
2022/03/12 08:38:40;;;;;;;7.78;7.35;;;;;;;11.12;46.02;101307.00;6078519;23;20020;-64
2022/03/12 08:41:12;;;;;;;5.25;4.95;;;;;;;11.33;46.27;101314.84;6083767;23;20038;-67
2022/03/12 08:43:39;;;;;;;5.93;5.63;;;;;;;11.17;46.22;101307.66;6076518;23;20017;-63
2022/03/12 08:46:07;;;;;;;4.88;4.68;;;;;;;11.38;46.88;101326.00;6058580;23;20093;-64
2022/03/12 08:48:35;;;;;;;6.07;5.78;;;;;;;11.71;45.88;101326.22;6075289;23;20018;-63
2022/03/12 08:51:03;;;;;;;4.60;4.40;;;;;;;11.97;45.77;101329.44;6076954;23;20073;-66
2022/03/12 08:53:29;;;;;;;5.72;5.43;;;;;;;12.00;45.77;101323.16;6080247;23;20415;-63
2022/03/12 08:55:56;;;;;;;4.50;4.30;;;;;;;12.12;46.42;101328.66;6081534;23;20173;-63
2022/03/12 08:58:23;;;;;;;4.60;4.40;;;;;;;12.41;45.92;101322.91;6079526;23;20159;-62
2022/03/12 09:00:52;;;;;;;5.30;4.85;;;;;;;12.56;46.58;101319.50;6057514;23;20971;-62
2022/03/12 09:03:20;;;;;;;4.50;4.30;;;;;;;12.75;47.15;101317.66;6082669;23;20525;-63
2022/03/12 09:05:49;;;;;;;5.72;4.18;;;;;;;12.76;50.47;101316.69;6079764;23;20364;-63
2022/03/12 09:08:17;;;;;;;4.40;4.20;;;;;;;12.94;51.56;101324.59;6078856;23;20540;-63
2022/03/12 09:10:44;;;;;;;4.97;4.78;;;;;;;12.68;52.33;101275.91;6076493;23;20028;-66
2022/03/12 09:13:16;;;;;;;4.50;4.30;;;;;;;13.15;52.20;101305.03;6082383;23;20030;-65
2022/03/12 09:15:43;;;;;;;5.35;5.15;;;;;;;13.23;52.65;101330.09;6056255;23;20426;-66
2022/03/12 09:18:10;;;;;;;5.03;4.82;;;;;;;13.47;52.12;101325.31;6077169;23;20026;-65
2022/03/12 09:20:45;;;;;;;6.15;5.85;;;;;;;13.44;51.78;101323.72;6053255;23;20016;-63
2022/03/12 09:23:17;;;;;;;4.50;4.30;;;;;;;13.45;52.63;101321.94;6075838;23;20057;-62
2022/03/12 09:25:48;;;;;;;5.32;5.03;;;;;;;13.48;52.50;101333.16;6081606;23;20511;-63
2022/03/12 09:28:15;;;;;;;4.60;4.40;;;;;;;13.11;53.14;101271.88;6078360;23;20049;-63
2022/03/12 09:30:42;;;;;;;5.13;4.93;;;;;;;13.68;52.72;101325.97;6079390;23;20375;-62
2022/03/12 09:33:09;;;;;;;4.60;4.40;;;;;;;13.68;52.12;101260.00;6079729;23;20240;-63
2022/03/12 09:35:36;;;;;;;5.80;5.50;;;;;;;14.19;50.70;101321.31;6078446;23;20042;-62
2022/03/12 09:38:03;;;;;;;4.80;4.60;;;;;;;14.25;50.25;101318.34;6082548;23;20026;-63
2022/03/12 09:40:30;;;;;;;6.35;5.85;;;;;;;14.15;50.86;101311.84;6077596;23;20036;-62
2022/03/12 09:42:58;;;;;;;5.45;5.15;;;;;;;14.07;51.00;101317.59;6080379;23;20592;-62
2022/03/12 09:45:25;;;;;;;5.05;4.85;;;;;;;13.73;50.78;101273.78;6075438;23;20036;-61
2022/03/12 09:47:51;;;;;;;4.70;4.50;;;;;;;14.04;50.97;101330.13;6078875;23;20486;-61
2022/03/12 09:50:18;;;;;;;4.55;4.35;;;;;;;14.07;51.02;101327.28;6084463;23;20260;-62
2022/03/12 09:52:45;;;;;;;5.53;5.30;;;;;;;14.06;50.82;101318.53;6077847;23;20041;-63
2022/03/12 09:55:12;;;;;;;4.50;4.30;;;;;;;13.69;51.55;101261.69;6082252;23;20029;-63
2022/03/12 09:57:43;;;;;;;5.30;5.10;;;;;;;13.68;50.94;101249.47;6081800;23;20055;-63
2022/03/12 10:00:11;;;;;;;4.70;4.50;;;;;;;14.06;50.86;101322.97;6076828;23;20548;-63
2022/03/12 10:02:38;;;;;;;6.25;5.95;;;;;;;14.35;50.07;101324.78;6080937;23;20435;-62
2022/03/12 10:05:05;;;;;;;4.45;4.25;;;;;;;14.62;49.59;101329.41;6061681;23;20673;-64
2022/03/12 10:07:32;;;;;;;6.93;6.57;;;;;;;14.98;48.42;101325.50;6080073;23;20046;-66
2022/03/12 10:09:58;;;;;;;4.60;4.40;;;;;;;15.29;47.77;101332.41;6086483;23;20070;-63
2022/03/12 10:12:25;;;;;;;5.53;5.18;;;;;;;14.39;46.82;101161.72;6076315;23;20098;-62
2022/03/12 10:14:57;;;;;;;4.53;4.32;;;;;;;15.38;46.18;101315.13;6085065;23;20009;-64
2022/03/12 10:17:23;;;;;;;4.82;4.63;;;;;;;15.53;47.10;101316.78;6079066;23;20430;-66
2022/03/12 10:19:50;;;;;;;4.65;4.45;;;;;;;15.53;46.65;101314.13;6057175;23;20018;-63
2022/03/12 10:22:16;;;;;;;4.97;4.78;;;;;;;15.64;45.54;101312.63;6084045;23;20282;-62
2022/03/12 10:24:43;;;;;;;5.40;5.20;;;;;;;15.71;45.51;101319.22;6054293;23;20439;-63
2022/03/12 10:27:09;;;;;;;4.60;4.40;;;;;;;15.70;45.24;101296.38;6084464;23;20101;-64
2022/03/12 10:29:38;;;;;;;6.13;5.82;;;;;;;15.77;45.95;101324.16;6059420;23;20447;-63
2022/03/12 10:32:25;;;;;;;4.70;4.50;;;;;;;14.05;44.82;101052.94;6079953;23;20485;-63
2022/03/12 10:34:56;;;;;;;5.13;4.93;;;;;;;15.02;45.82;101205.44;6081353;23;20045;-65
2022/03/12 10:37:25;;;;;;;4.93;4.72;;;;;;;14.89;45.51;101156.94;6086143;23;20026;-66
2022/03/12 10:40:11;;;;;;;4.60;4.40;;;;;;;15.99;45.57;101305.09;6053070;23;20438;-65
2022/03/12 10:42:46;;;;;;;6.00;5.70;;;;;;;15.86;45.40;101310.34;6077650;23;20089;-62
2022/03/12 10:45:16;;;;;;;4.65;4.45;;;;;;;15.72;45.47;101313.00;6055230;23;20030;-63
2022/03/12 10:47:48;;;;;;;5.45;5.25;;;;;;;15.77;45.73;101312.72;6077351;23;20044;-63
2022/03/12 10:50:25;;;;;;;5.10;4.90;;;;;;;15.76;46.02;101306.59;6083798;23;20027;-63
2022/03/12 10:52:55;;;;;;;4.60;4.40;;;;;;;15.17;46.22;101248.56;6084724;23;20037;-62
2022/03/12 10:55:28;;;;;;;4.70;4.50;;;;;;;15.60;46.30;101303.19;6088737;23;20029;-62
2022/03/12 10:58:07;;;;;;;4.53;4.32;;;;;;;15.31;46.65;101296.13;6079357;23;20090;-63
2022/03/12 11:01:01;;;;;;;6.22;5.93;;;;;;;15.31;46.69;101306.69;6074902;23;20482;-63
2022/03/12 11:03:34;;;;;;;5.38;5.07;;;;;;;15.21;47.21;101302.94;6075186;23;20041;-63
2022/03/12 11:06:02;;;;;;;4.88;4.68;;;;;;;15.10;47.70;101311.53;6073829;23;20032;-63
2022/03/12 11:08:30;;;;;;;6.40;6.10;;;;;;;14.95;47.64;101316.00;6072386;23;20014;-63
2022/03/12 11:11:00;;;;;;;5.28;4.97;;;;;;;14.92;47.69;101333.81;6076770;23;20115;-63
2022/03/12 11:13:38;;;;;;;5.85;5.57;;;;;;;15.13;47.39;101316.66;6070343;23;20079;-63
2022/03/12 11:16:32;;;;;;;4.72;4.53;;;;;;;15.12;47.64;101314.94;6084271;23;20085;-64
2022/03/12 11:19:07;;;;;;;4.85;4.65;;;;;;;15.07;47.58;101313.53;6081100;23;20243;-63
2022/03/12 11:21:50;;;;;;;6.07;5.78;;;;;;;15.16;46.93;101319.09;6072022;23;20108;-66
2022/03/12 11:24:22;;;;;;;5.10;4.82;;;;;;;15.30;46.74;101310.31;6074935;23;20026;-66
2022/03/12 11:26:48;;;;;;;4.80;4.60;;;;;;;15.39;46.20;101314.16;6067118;23;20045;-63
2022/03/12 11:29:17;;;;;;;5.43;5.15;;;;;;;14.93;47.10;101254.44;6077476;23;20093;-64
2022/03/12 11:31:52;;;;;;;5.72;5.43;;;;;;;14.93;46.87;101272.94;6071442;23;20379;-63
2022/03/12 11:34:40;;;;;;;5.30;5.00;;;;;;;15.57;46.05;101309.50;6075337;23;20483;-63
2022/03/12 11:37:15;;;;;;;4.55;4.35;;;;;;;15.39;45.35;101274.50;6089205;23;20029;-64
2022/03/12 11:39:45;;;;;;;6.00;5.70;;;;;;;15.37;46.62;101310.75;6077709;23;20358;-64